Time;durP1;ratioP1;P1;durP2;ratioP2;P2;SDS_P1;SDS_P2;PMS_P1;PMS_P2;Temp;Humidity;BMP_temperature;BMP_pressure;BME280_temperature;BME280_humidity;BME280_pressure;Samples;Min_cycle;Max_cycle;Signal;HPM_P1;HPM_P2
2022/03/24 00:00:39;;;;;;;37.27;16.50;;;8.20;60.30;;;;;;5090347;28;20417;-72
2022/03/24 00:03:06;;;;;;;30.43;14.60;;;8.30;59.30;;;;;;5091897;28;20285;-72
2022/03/24 00:05:32;;;;;;;33.67;15.37;;;8.20;58.90;;;;;;5091576;28;20460;-72
2022/03/24 00:07:58;;;;;;;30.63;16.07;;;8.10;59.30;;;;;;5092144;28;20425;-74
2022/03/24 00:10:24;;;;;;;36.00;15.40;;;8.00;60.00;;;;;;5091993;28;20421;-70
2022/03/24 00:12:51;;;;;;;31.63;15.70;;;8.00;60.10;;;;;;5087011;28;20202;-71
2022/03/24 00:15:17;;;;;;;30.23;16.80;;;7.90;60.60;;;;;;5093112;28;20444;-72
2022/03/24 00:17:44;;;;;;;39.20;15.60;;;7.90;60.60;;;;;;5089765;28;20421;-73
2022/03/24 00:20:12;;;;;;;27.13;14.90;;;7.90;60.70;;;;;;5079052;28;20451;-71
2022/03/24 00:22:38;;;;;;;34.33;16.10;;;7.80;61.00;;;;;;5084809;28;20460;-71
2022/03/24 00:25:05;;;;;;;35.67;16.80;;;7.80;61.30;;;;;;5094263;28;20468;-71
2022/03/24 00:27:31;;;;;;;31.20;15.60;;;7.70;61.70;;;;;;5098101;28;20424;-71
2022/03/24 00:29:57;;;;;;;33.80;15.53;;;7.70;61.90;;;;;;5080009;28;20429;-72
2022/03/24 00:32:22;;;;;;;35.40;15.47;;;7.70;62.30;;;;;;5096966;28;20437;-71
2022/03/24 00:34:48;;;;;;;35.70;15.97;;;7.70;62.60;;;;;;5093735;28;20525;-71
2022/03/24 00:37:14;;;;;;;37.30;15.90;;;7.60;62.30;;;;;;5090589;28;20201;-74
2022/03/24 00:39:40;;;;;;;30.67;15.70;;;7.60;61.90;;;;;;5096092;28;20187;-71
2022/03/24 00:42:08;;;;;;;32.10;15.90;;;7.60;61.50;;;;;;5091516;28;21056;-73
2022/03/24 00:44:35;;;;;;;31.73;14.90;;;7.60;61.30;;;;;;5092032;28;20717;-71
2022/03/24 00:47:02;;;;;;;34.60;15.70;;;7.50;61.60;;;;;;5074129;28;20432;-71
2022/03/24 00:49:28;;;;;;;37.90;17.80;;;7.50;61.60;;;;;;5092154;28;20455;-71
2022/03/24 00:51:55;;;;;;;34.57;16.30;;;7.50;61.20;;;;;;5098915;28;20433;-71
2022/03/24 00:54:21;;;;;;;28.70;14.03;;;7.30;61.90;;;;;;5092630;28;20494;-73
2022/03/24 00:56:47;;;;;;;31.80;14.97;;;7.30;62.60;;;;;;5098335;28;20417;-72
2022/03/24 00:59:13;;;;;;;39.83;16.40;;;7.20;63.20;;;;;;5091780;28;20423;-71
2022/03/24 01:01:41;;;;;;;31.90;15.77;;;7.10;63.80;;;;;;5091270;28;20453;-71
2022/03/24 01:04:08;;;;;;;28.43;15.13;;;7.10;64.40;;;;;;5091278;28;20544;-71
2022/03/24 01:06:34;;;;;;;35.73;15.47;;;7.10;64.50;;;;;;5090882;28;20414;-70
2022/03/24 01:09:05;;;;;;;41.40;17.47;;;7.00;64.80;;;;;;5081410;28;21027;-71
2022/03/24 01:11:31;;;;;;;34.63;15.50;;;7.00;64.80;;;;;;5090899;28;20437;-70
2022/03/24 01:13:57;;;;;;;34.43;16.50;;;7.00;64.50;;;;;;5091196;28;20915;-72
2022/03/24 01:16:25;;;;;;;31.40;15.53;;;6.80;64.50;;;;;;5080294;28;20515;-70
2022/03/24 01:18:51;;;;;;;34.53;15.90;;;6.80;64.80;;;;;;5091075;28;20972;-70
2022/03/24 01:21:17;;;;;;;30.17;15.30;;;6.70;65.40;;;;;;5068258;28;20555;-71
2022/03/24 01:23:45;;;;;;;33.80;15.00;;;6.70;65.70;;;;;;5073305;28;20924;-73
2022/03/24 01:26:11;;;;;;;30.83;15.47;;;6.70;66.00;;;;;;5092440;28;20179;-73
2022/03/24 01:28:39;;;;;;;33.03;15.57;;;6.70;66.00;;;;;;5096362;28;20500;-73
2022/03/24 01:31:05;;;;;;;32.33;16.23;;;6.70;66.40;;;;;;5090299;28;20429;-72
2022/03/24 01:33:31;;;;;;;33.80;16.20;;;6.60;66.70;;;;;;5091752;28;20424;-71
2022/03/24 01:35:57;;;;;;;33.37;16.10;;;6.60;66.60;;;;;;5091488;28;20418;-73
2022/03/24 01:38:23;;;;;;;29.80;16.23;;;6.60;66.30;;;;;;5080076;28;20191;-71
2022/03/24 01:40:50;;;;;;;31.07;15.07;;;6.70;66.10;;;;;;5095537;28;20183;-73
2022/03/24 01:43:17;;;;;;;29.40;16.23;;;6.70;66.00;;;;;;5106793;28;20437;-74
2022/03/24 01:45:42;;;;;;;33.70;15.03;;;6.70;66.10;;;;;;5088458;28;20472;-72
2022/03/24 01:48:08;;;;;;;32.10;15.40;;;6.70;65.80;;;;;;5101498;28;20662;-74
2022/03/24 01:50:36;;;;;;;29.30;15.37;;;6.70;65.80;;;;;;5090992;28;20179;-70
2022/03/24 01:53:02;;;;;;;28.77;14.53;;;6.60;66.40;;;;;;5090582;28;20259;-72
2022/03/24 01:55:29;;;;;;;35.83;16.13;;;6.50;66.60;;;;;;5078663;28;20425;-73
2022/03/24 01:57:55;;;;;;;34.43;15.77;;;6.50;66.90;;;;;;5090659;28;20413;-73
2022/03/24 02:00:21;;;;;;;36.43;16.87;;;6.50;66.90;;;;;;5090512;28;20440;-75
2022/03/24 02:02:48;;;;;;;34.73;16.33;;;6.50;66.70;;;;;;5090995;28;21147;-71
2022/03/24 02:05:14;;;;;;;38.00;17.20;;;6.50;65.60;;;;;;5090858;28;20488;-71
2022/03/24 02:07:40;;;;;;;37.50;15.40;;;6.50;65.30;;;;;;5094067;28;20417;-73
2022/03/24 02:10:08;;;;;;;29.70;14.63;;;6.50;65.80;;;;;;5095938;28;20439;-72
2022/03/24 02:12:34;;;;;;;38.73;17.23;;;6.50;66.30;;;;;;5096083;28;20298;-72
2022/03/24 02:15:00;;;;;;;33.40;16.93;;;6.50;66.70;;;;;;5090209;28;20423;-72
2022/03/24 02:17:30;;;;;;;37.07;16.33;;;6.50;66.60;;;;;;5090404;28;20409;-71
2022/03/24 02:19:58;;;;;;;34.67;17.47;;;6.50;66.40;;;;;;5090186;28;20457;-71
2022/03/24 02:22:25;;;;;;;32.93;16.97;;;6.50;66.90;;;;;;5084205;28;20876;-73
2022/03/24 02:24:51;;;;;;;36.53;16.80;;;6.50;66.90;;;;;;5090121;28;20460;-73
2022/03/24 02:27:17;;;;;;;38.93;17.00;;;6.50;66.60;;;;;;5081627;28;20421;-73
2022/03/24 02:29:42;;;;;;;32.13;15.37;;;6.40;66.30;;;;;;5098214;28;20180;-72
2022/03/24 02:32:11;;;;;;;35.00;16.07;;;6.40;65.60;;;;;;5079444;28;20449;-74
2022/03/24 02:34:38;;;;;;;39.03;16.47;;;6.40;65.40;;;;;;5094664;28;20228;-72
2022/03/24 02:37:08;;;;;;;35.13;16.93;;;6.40;65.70;;;;;;5090671;28;20490;-72
2022/03/24 02:39:38;;;;;;;32.07;15.10;;;6.30;65.80;;;;;;5090531;28;20421;-72
2022/03/24 02:42:05;;;;;;;35.07;17.30;;;6.30;66.30;;;;;;5089886;28;20438;-71
2022/03/24 02:44:31;;;;;;;31.50;15.67;;;6.30;66.70;;;;;;5089926;28;20461;-74
2022/03/24 02:47:00;;;;;;;33.97;15.97;;;6.20;67.00;;;;;;5089734;28;20421;-72
2022/03/24 02:49:28;;;;;;;35.47;16.77;;;6.20;67.30;;;;;;5089648;28;20429;-73
2022/03/24 02:51:58;;;;;;;36.73;16.37;;;6.10;67.70;;;;;;5076596;28;20498;-73
2022/03/24 02:54:24;;;;;;;30.00;15.40;;;6.10;67.90;;;;;;5087107;28;20413;-73
2022/03/24 02:56:49;;;;;;;32.07;16.17;;;6.10;68.00;;;;;;5084776;28;20463;-73
2022/03/24 02:59:16;;;;;;;31.10;16.43;;;6.10;68.00;;;;;;5089926;28;20191;-72
2022/03/24 03:01:52;;;;;;;29.37;16.53;;;6.00;68.00;;;;;;5090425;28;20206;-71
2022/03/24 03:04:19;;;;;;;34.40;16.67;;;6.00;68.30;;;;;;5093222;28;20455;-71
2022/03/24 03:06:45;;;;;;;31.63;15.70;;;5.90;68.50;;;;;;5094197;28;20417;-71
2022/03/24 03:09:14;;;;;;;33.63;16.43;;;5.80;68.80;;;;;;5096073;28;20447;-71
2022/03/24 03:11:43;;;;;;;34.80;16.40;;;5.90;68.60;;;;;;5096121;28;20441;-72
2022/03/24 03:14:11;;;;;;;33.73;17.00;;;6.00;68.30;;;;;;5097511;28;20421;-73
2022/03/24 03:16:37;;;;;;;37.87;17.20;;;5.90;68.20;;;;;;5097211;28;20460;-73
2022/03/24 03:19:03;;;;;;;30.57;15.00;;;5.80;68.50;;;;;;5093441;28;20460;-72
2022/03/24 03:21:30;;;;;;;36.30;17.07;;;5.80;68.60;;;;;;5091578;28;20436;-74
2022/03/24 03:23:56;;;;;;;34.07;17.33;;;5.70;69.10;;;;;;5096110;28;20436;-72
2022/03/24 03:26:23;;;;;;;36.33;17.03;;;5.60;69.40;;;;;;5086398;28;20409;-72
2022/03/24 03:28:52;;;;;;;41.97;17.60;;;5.50;69.90;;;;;;5098613;28;20206;-72
2022/03/24 03:31:19;;;;;;;41.43;17.53;;;5.40;70.10;;;;;;5100226;28;20437;-72
2022/03/24 03:33:45;;;;;;;40.50;16.60;;;5.40;69.90;;;;;;5099908;28;20482;-72
2022/03/24 03:36:11;;;;;;;40.47;16.63;;;5.40;69.90;;;;;;5108700;28;20421;-72
2022/03/24 03:38:37;;;;;;;32.20;17.77;;;5.40;70.10;;;;;;5101883;28;20412;-73
2022/03/24 03:41:03;;;;;;;41.87;16.60;;;5.40;70.20;;;;;;5103486;28;20417;-73
2022/03/24 03:43:29;;;;;;;33.97;16.20;;;5.50;69.90;;;;;;5107890;28;20179;-72
2022/03/24 03:45:55;;;;;;;39.87;16.60;;;5.50;70.10;;;;;;5090286;28;20496;-71
2022/03/24 03:48:21;;;;;;;33.97;17.37;;;5.40;70.10;;;;;;5111629;28;20430;-71
2022/03/24 03:50:48;;;;;;;27.53;14.87;;;5.40;70.20;;;;;;5111725;28;20411;-72
2022/03/24 03:53:14;;;;;;;34.60;16.63;;;5.40;70.20;;;;;;5108782;28;20447;-72
2022/03/24 03:55:40;;;;;;;37.47;17.47;;;5.30;70.40;;;;;;5105134;28;20874;-73
2022/03/24 03:58:06;;;;;;;31.30;16.03;;;5.30;70.70;;;;;;5103228;28;20432;-73
2022/03/24 04:00:52;;;;;;;33.83;16.73;;;5.30;70.80;;;;;;5101014;28;20429;-73
2022/03/24 04:03:21;;;;;;;34.67;16.33;;;5.30;71.10;;;;;;5096935;28;20996;-72
2022/03/24 04:05:46;;;;;;;39.30;16.30;;;5.30;70.80;;;;;;5097478;28;20468;-73
2022/03/24 04:08:13;;;;;;;38.53;17.60;;;5.30;70.80;;;;;;5095734;28;20803;-73
2022/03/24 04:10:39;;;;;;;36.63;16.60;;;5.30;71.00;;;;;;5092198;28;20937;-71
2022/03/24 04:13:06;;;;;;;37.80;17.10;;;5.30;71.00;;;;;;5074889;28;20453;-72
2022/03/24 04:15:33;;;;;;;30.97;15.43;;;5.30;70.80;;;;;;5092161;28;21190;-73
2022/03/24 04:17:59;;;;;;;33.73;18.57;;;5.30;70.50;;;;;;5079221;28;20425;-74
2022/03/24 04:20:26;;;;;;;34.10;17.70;;;5.30;70.10;;;;;;5090851;28;20417;-73
2022/03/24 04:22:53;;;;;;;33.37;16.70;;;5.30;70.40;;;;;;5075009;28;20445;-75
2022/03/24 04:25:20;;;;;;;38.43;18.10;;;5.20;70.80;;;;;;5092782;28;20477;-74
2022/03/24 04:27:47;;;;;;;38.30;16.40;;;5.20;70.80;;;;;;5092553;28;20421;-73
2022/03/24 04:30:13;;;;;;;38.63;17.33;;;5.30;70.40;;;;;;5068050;28;20939;-73
2022/03/24 04:32:39;;;;;;;32.20;16.13;;;5.30;70.20;;;;;;5078795;28;20452;-72
2022/03/24 04:35:07;;;;;;;36.67;17.50;;;5.20;70.50;;;;;;5074128;28;20465;-74
2022/03/24 04:37:33;;;;;;;37.63;17.90;;;5.30;70.50;;;;;;5092399;28;20433;-73
2022/03/24 04:39:59;;;;;;;35.20;17.23;;;5.30;70.50;;;;;;5092307;28;20800;-73
2022/03/24 04:42:25;;;;;;;37.33;17.70;;;5.20;70.70;;;;;;5094655;28;20504;-74
2022/03/24 04:44:50;;;;;;;32.30;15.90;;;5.20;71.10;;;;;;5096159;28;20210;-72
2022/03/24 04:47:17;;;;;;;36.73;17.40;;;5.20;71.40;;;;;;5094948;28;20219;-74
2022/03/24 04:49:43;;;;;;;36.97;17.87;;;5.20;71.30;;;;;;5087490;28;20278;-75
2022/03/24 04:52:09;;;;;;;36.73;17.00;;;5.20;71.60;;;;;;5069097;28;20900;-74
2022/03/24 04:54:35;;;;;;;36.43;16.17;;;5.20;71.60;;;;;;5093923;28;20248;-72
2022/03/24 04:57:01;;;;;;;39.27;16.20;;;5.10;71.80;;;;;;5089504;28;20187;-73
2022/03/24 04:59:27;;;;;;;31.57;16.00;;;5.10;71.70;;;;;;5084851;28;20468;-73
2022/03/24 05:01:53;;;;;;;34.60;17.33;;;5.10;71.60;;;;;;5079971;28;20291;-74
2022/03/24 05:04:18;;;;;;;35.77;16.83;;;5.10;71.60;;;;;;5094186;28;20836;-73
2022/03/24 05:06:44;;;;;;;33.83;17.10;;;5.10;71.60;;;;;;5094619;28;20421;-73
2022/03/24 05:09:11;;;;;;;32.23;16.53;;;5.10;71.80;;;;;;5088734;28;20187;-73
2022/03/24 05:11:37;;;;;;;32.03;16.87;;;5.00;71.80;;;;;;5091820;28;20997;-72
2022/03/24 05:14:02;;;;;;;35.90;16.00;;;5.00;72.00;;;;;;5092991;28;20451;-73
2022/03/24 05:16:28;;;;;;;39.83;18.07;;;4.90;72.10;;;;;;5092349;28;20556;-73
2022/03/24 05:18:54;;;;;;;37.13;17.17;;;5.00;71.60;;;;;;5085917;28;20620;-74
2022/03/24 05:21:20;;;;;;;35.13;18.37;;;5.00;71.00;;;;;;5091142;28;20887;-73
2022/03/24 05:23:47;;;;;;;44.37;20.70;;;5.10;70.10;;;;;;5078989;28;20456;-73
2022/03/24 05:26:13;;;;;;;44.53;19.27;;;5.00;69.50;;;;;;5087861;28;20422;-73
2022/03/24 05:28:39;;;;;;;35.43;17.33;;;5.00;69.80;;;;;;5100061;28;20942;-74
2022/03/24 05:31:05;;;;;;;37.00;17.70;;;5.00;69.70;;;;;;5102132;28;20435;-73
2022/03/24 05:33:33;;;;;;;34.87;16.80;;;5.00;69.70;;;;;;5104346;28;20406;-74
2022/03/24 05:35:59;;;;;;;41.13;18.10;;;4.90;70.10;;;;;;5103076;28;20492;-73
2022/03/24 05:38:26;;;;;;;39.10;17.43;;;4.90;70.20;;;;;;5093662;28;20844;-76
2022/03/24 05:40:52;;;;;;;43.13;19.60;;;5.00;69.90;;;;;;5091234;28;20920;-73
2022/03/24 05:43:18;;;;;;;37.47;18.43;;;5.00;69.80;;;;;;5090780;28;20448;-73
2022/03/24 05:45:43;;;;;;;37.20;18.47;;;5.00;70.10;;;;;;5091522;28;20461;-74
2022/03/24 05:48:09;;;;;;;37.30;18.20;;;5.10;69.70;;;;;;5091037;28;20187;-73
2022/03/24 05:50:35;;;;;;;42.00;17.40;;;5.10;69.80;;;;;;5091209;28;20179;-74
2022/03/24 05:53:02;;;;;;;37.63;18.63;;;5.10;69.90;;;;;;5086521;28;20461;-73
2022/03/24 05:55:29;;;;;;;41.27;17.23;;;5.20;69.50;;;;;;5084105;28;20449;-74
2022/03/24 05:57:54;;;;;;;37.57;17.73;;;5.20;69.40;;;;;;5090824;28;20424;-73
2022/03/24 06:00:21;;;;;;;34.33;18.00;;;5.10;69.50;;;;;;5086901;28;20760;-72
2022/03/24 06:02:47;;;;;;;40.03;17.43;;;5.10;69.90;;;;;;5090590;28;20194;-73
2022/03/24 06:05:14;;;;;;;38.60;18.10;;;5.10;69.90;;;;;;5091316;28;20825;-74
2022/03/24 06:07:40;;;;;;;40.50;18.87;;;5.20;69.90;;;;;;5090895;28;20413;-74
2022/03/24 06:10:07;;;;;;;37.90;16.90;;;5.20;69.80;;;;;;5089928;28;20449;-73
2022/03/24 06:12:34;;;;;;;38.67;18.27;;;5.30;69.80;;;;;;5076301;28;20517;-74
2022/03/24 06:15:00;;;;;;;46.10;19.97;;;5.20;69.90;;;;;;5090680;28;20418;-75
2022/03/24 06:17:26;;;;;;;38.03;17.80;;;5.30;70.10;;;;;;5090329;28;20413;-71
2022/03/24 06:19:53;;;;;;;34.53;18.53;;;5.40;69.80;;;;;;5090022;28;20213;-74
2022/03/24 06:22:19;;;;;;;39.63;19.70;;;5.30;69.90;;;;;;5089874;28;20819;-74
2022/03/24 06:24:45;;;;;;;41.10;18.00;;;5.30;69.50;;;;;;5090768;28;20465;-73
2022/03/24 06:27:11;;;;;;;39.53;19.77;;;5.30;69.40;;;;;;5090511;28;20476;-72
2022/03/24 06:29:37;;;;;;;40.63;18.30;;;5.30;69.20;;;;;;5090538;28;20183;-74
2022/03/24 06:32:03;;;;;;;38.60;18.07;;;5.40;69.10;;;;;;5090317;28;20358;-73
2022/03/24 06:34:29;;;;;;;38.07;18.17;;;5.40;69.20;;;;;;5091113;28;20413;-74
2022/03/24 06:36:55;;;;;;;38.33;18.00;;;5.40;69.20;;;;;;5090368;28;21044;-74
2022/03/24 06:39:24;;;;;;;37.47;17.80;;;5.40;69.10;;;;;;5092494;28;20546;-72
2022/03/24 06:41:50;;;;;;;40.27;19.53;;;5.40;69.10;;;;;;5093617;28;20206;-73
2022/03/24 06:44:16;;;;;;;51.17;19.80;;;5.50;68.80;;;;;;5084179;28;20461;-73
2022/03/24 06:46:41;;;;;;;44.83;19.00;;;5.60;68.50;;;;;;5093970;28;20420;-72
2022/03/24 06:49:07;;;;;;;44.63;18.90;;;5.60;68.00;;;;;;5093203;28;20787;-73
2022/03/24 06:51:34;;;;;;;43.67;21.60;;;5.60;68.00;;;;;;5076668;28;20206;-73
2022/03/24 06:54:02;;;;;;;47.57;20.00;;;5.70;68.20;;;;;;5089657;28;20232;-73
2022/03/24 06:56:27;;;;;;;39.10;19.70;;;5.70;68.00;;;;;;5090613;28;20505;-73
2022/03/24 06:58:53;;;;;;;36.03;18.50;;;5.70;68.00;;;;;;5080175;28;20892;-75
2022/03/24 07:01:19;;;;;;;43.17;20.00;;;5.80;68.20;;;;;;5090249;28;20194;-74
2022/03/24 07:03:46;;;;;;;43.50;19.23;;;5.90;68.00;;;;;;5091554;28;20171;-74
2022/03/24 07:06:11;;;;;;;41.70;19.23;;;6.00;67.70;;;;;;5071792;28;20832;-72
2022/03/24 07:08:37;;;;;;;54.73;20.20;;;6.00;67.90;;;;;;5089906;28;20516;-73
2022/03/24 07:11:04;;;;;;;45.00;19.07;;;6.10;68.00;;;;;;5088924;28;20425;-72
2022/03/24 07:13:31;;;;;;;40.87;18.37;;;6.20;67.60;;;;;;5089719;28;20410;-72
2022/03/24 07:15:56;;;;;;;36.37;17.60;;;6.30;67.20;;;;;;5089492;28;20417;-73
2022/03/24 07:18:22;;;;;;;42.40;19.67;;;6.40;67.00;;;;;;5089250;28;20431;-74
2022/03/24 07:20:50;;;;;;;48.20;19.37;;;6.40;66.70;;;;;;5091700;28;20224;-74
2022/03/24 07:23:16;;;;;;;45.43;19.70;;;6.50;66.30;;;;;;5093835;28;20571;-73
2022/03/24 07:25:42;;;;;;;47.83;19.40;;;6.70;65.40;;;;;;5093731;28;21014;-73
2022/03/24 07:28:10;;;;;;;44.27;19.43;;;6.80;65.10;;;;;;5094332;28;20429;-71
2022/03/24 07:30:36;;;;;;;42.60;19.93;;;6.90;64.70;;;;;;5094056;28;20420;-74
2022/03/24 07:33:02;;;;;;;38.73;18.03;;;6.90;64.70;;;;;;5077399;28;20452;-73
2022/03/24 07:35:34;;;;;;;43.20;19.83;;;7.10;64.40;;;;;;5094803;28;20425;-74
2022/03/24 07:38:00;;;;;;;43.93;19.67;;;7.20;63.90;;;;;;5094063;28;20923;-73
2022/03/24 07:40:26;;;;;;;41.60;20.20;;;7.20;64.10;;;;;;5094097;28;20417;-73
2022/03/24 07:42:54;;;;;;;48.37;22.83;;;7.30;64.40;;;;;;5095865;28;20495;-72
2022/03/24 07:45:20;;;;;;;44.33;21.80;;;7.30;64.20;;;;;;5097206;28;20966;-73
2022/03/24 07:48:07;;;;;;;45.00;18.80;;;7.40;64.10;;;;;;5094353;28;20446;-72
2022/03/24 07:50:34;;;;;;;48.53;21.20;;;7.60;63.40;;;;;;5088286;28;20470;-76
2022/03/24 07:53:22;;;;;;;40.53;19.60;;;7.70;63.10;;;;;;5091603;28;20464;-77
2022/03/24 07:55:48;;;;;;;41.23;22.17;;;7.80;63.10;;;;;;5089443;28;20445;-74
2022/03/24 07:58:17;;;;;;;43.97;20.67;;;7.90;62.60;;;;;;5076242;28;20476;-77
2022/03/24 08:00:45;;;;;;;58.43;21.93;;;8.00;62.20;;;;;;5093798;28;20319;-73
2022/03/24 08:03:13;;;;;;;39.00;19.63;;;8.20;61.30;;;;;;5093108;28;20927;-73
2022/03/24 08:05:39;;;;;;;48.30;20.80;;;8.30;61.20;;;;;;5093497;28;20464;-72
2022/03/24 08:08:05;;;;;;;46.73;21.43;;;8.40;60.60;;;;;;5093228;28;20421;-72
2022/03/24 08:10:31;;;;;;;44.93;21.80;;;8.40;59.60;;;;;;5080904;28;21153;-72
2022/03/24 08:12:57;;;;;;;47.77;21.70;;;8.50;59.70;;;;;;5075567;28;20533;-74
2022/03/24 08:15:23;;;;;;;46.20;21.10;;;8.60;60.00;;;;;;5074701;28;20183;-73
2022/03/24 08:17:49;;;;;;;43.97;21.07;;;8.60;60.00;;;;;;5092621;28;20183;-73
2022/03/24 08:20:15;;;;;;;42.20;21.27;;;8.80;60.00;;;;;;5075827;28;20528;-73
2022/03/24 08:22:41;;;;;;;39.90;21.30;;;8.90;59.60;;;;;;5100041;28;20507;-72
2022/03/24 08:25:09;;;;;;;44.27;21.70;;;9.00;59.10;;;;;;5102781;28;20457;-74
2022/03/24 08:27:38;;;;;;;46.17;21.83;;;9.10;58.90;;;;;;5094645;28;20497;-74
2022/03/24 08:30:05;;;;;;;42.27;20.97;;;9.20;58.50;;;;;;5093477;28;20516;-74
2022/03/24 08:32:31;;;;;;;47.80;22.00;;;9.30;58.10;;;;;;5091706;28;20445;-74
2022/03/24 08:34:57;;;;;;;37.37;20.63;;;9.40;57.80;;;;;;5093019;28;20447;-73
2022/03/24 08:37:22;;;;;;;47.30;22.17;;;9.50;57.30;;;;;;5092722;28;20510;-74
2022/03/24 08:39:48;;;;;;;43.43;21.43;;;9.60;57.40;;;;;;5074788;28;20183;-72
2022/03/24 08:42:14;;;;;;;47.23;22.27;;;9.70;57.30;;;;;;5092204;28;20214;-72
2022/03/24 08:44:40;;;;;;;41.90;19.53;;;9.80;56.80;;;;;;5092724;28;21093;-72
2022/03/24 08:47:06;;;;;;;53.23;21.90;;;9.90;56.80;;;;;;5092699;28;20187;-74
2022/03/24 08:49:32;;;;;;;41.40;21.10;;;10.00;57.20;;;;;;5092105;28;20876;-75
2022/03/24 08:51:59;;;;;;;40.70;21.50;;;10.00;56.50;;;;;;5092107;28;20437;-74
2022/03/24 08:54:24;;;;;;;44.03;21.10;;;10.10;56.00;;;;;;5074075;28;20183;-74
2022/03/24 08:56:50;;;;;;;46.93;20.87;;;10.20;55.70;;;;;;5092049;28;20463;-76
2022/03/24 08:59:16;;;;;;;46.47;21.00;;;10.30;55.40;;;;;;5092183;28;20187;-74
2022/03/24 09:01:43;;;;;;;41.77;21.80;;;10.50;55.00;;;;;;5092312;28;20449;-71
2022/03/24 09:04:10;;;;;;;46.37;21.30;;;10.60;54.10;;;;;;5092478;28;20825;-74
2022/03/24 09:06:37;;;;;;;42.47;20.83;;;10.80;53.30;;;;;;5092551;28;20787;-73
2022/03/24 09:09:04;;;;;;;40.77;20.97;;;10.90;52.60;;;;;;5093024;28;20448;-72
2022/03/24 09:11:30;;;;;;;52.43;22.50;;;11.00;52.10;;;;;;5091373;28;20445;-73
2022/03/24 09:13:56;;;;;;;46.30;22.40;;;11.00;51.70;;;;;;5091930;28;20501;-73
2022/03/24 09:16:21;;;;;;;39.83;20.33;;;11.20;51.60;;;;;;5092286;28;20190;-74
2022/03/24 09:18:48;;;;;;;40.67;21.03;;;11.30;50.70;;;;;;5092521;28;20413;-73
2022/03/24 09:21:16;;;;;;;46.30;23.03;;;11.40;50.50;;;;;;5079773;28;20207;-72
2022/03/24 09:23:43;;;;;;;46.97;21.67;;;11.50;49.80;;;;;;5102257;28;20421;-73
2022/03/24 09:26:09;;;;;;;43.60;21.80;;;11.60;50.10;;;;;;5100224;28;20838;-73
2022/03/24 09:28:35;;;;;;;41.73;21.20;;;11.70;49.40;;;;;;5096833;28;20426;-74
2022/03/24 09:31:01;;;;;;;47.77;22.93;;;11.90;48.90;;;;;;5093062;28;20421;-74
2022/03/24 09:33:27;;;;;;;42.90;22.00;;;12.00;47.80;;;;;;5076401;28;20547;-74
2022/03/24 09:35:53;;;;;;;43.37;20.07;;;12.20;47.70;;;;;;5095298;28;20226;-74
2022/03/24 09:38:19;;;;;;;44.93;21.97;;;12.30;47.00;;;;;;5095015;28;20787;-71
2022/03/24 09:40:45;;;;;;;56.80;22.60;;;12.50;47.00;;;;;;5095482;28;20424;-74
2022/03/24 09:43:13;;;;;;;49.10;21.37;;;12.70;46.70;;;;;;5095593;28;20689;-73
2022/03/24 09:45:41;;;;;;;49.47;23.23;;;12.80;45.90;;;;;;5088789;28;20525;-74
2022/03/24 09:48:07;;;;;;;53.60;23.00;;;13.00;45.40;;;;;;5094504;28;20452;-75
2022/03/24 09:50:34;;;;;;;44.00;22.70;;;13.10;45.10;;;;;;5092259;28;20409;-74
2022/03/24 09:53:01;;;;;;;43.67;22.00;;;13.20;44.10;;;;;;5091214;28;20809;-74
2022/03/24 09:55:30;;;;;;;47.13;22.60;;;13.30;43.80;;;;;;5091427;28;20443;-73
2022/03/24 09:57:57;;;;;;;46.13;23.40;;;13.40;43.70;;;;;;5091364;28;20421;-74
2022/03/24 10:00:23;;;;;;;47.10;22.87;;;13.50;43.40;;;;;;5082766;28;20510;-74
2022/03/24 10:03:17;;;;;;;49.40;22.30;;;13.70;42.60;;;;;;5091092;28;20520;-73
2022/03/24 10:05:56;;;;;;;49.10;21.97;;;13.80;42.20;;;;;;5093023;28;20742;-72
2022/03/24 10:08:22;;;;;;;53.60;24.83;;;13.90;41.20;;;;;;5089018;28;20794;-75
2022/03/24 10:10:48;;;;;;;38.50;20.80;;;14.00;40.70;;;;;;5090922;28;20503;-71
2022/03/24 10:13:24;;;;;;;42.00;20.20;;;14.10;36.30;;;;;;5091151;28;20564;-72
2022/03/24 10:15:50;;;;;;;45.80;21.70;;;14.20;37.10;;;;;;5091246;28;20466;-74
2022/03/24 10:18:16;;;;;;;42.23;20.77;;;14.30;37.60;;;;;;5090843;28;20510;-73
2022/03/24 10:20:42;;;;;;;42.20;20.03;;;14.40;36.20;;;;;;5073008;28;20275;-73
2022/03/24 10:23:10;;;;;;;43.20;21.30;;;14.50;34.90;;;;;;5080476;28;20905;-72
2022/03/24 10:25:39;;;;;;;43.20;21.60;;;14.50;34.80;;;;;;5090880;28;20208;-73
2022/03/24 10:28:05;;;;;;;44.50;21.50;;;14.60;35.60;;;;;;5090338;28;20896;-74
2022/03/24 10:30:49;;;;;;;45.10;21.97;;;14.70;36.00;;;;;;5090458;28;20422;-73
2022/03/24 10:33:33;;;;;;;42.27;21.13;;;14.80;36.40;;;;;;5090199;28;20440;-74
2022/03/24 10:36:08;;;;;;;44.33;22.27;;;14.90;35.70;;;;;;5073139;28;20803;-75
2022/03/24 10:38:39;;;;;;;39.77;21.80;;;15.00;35.60;;;;;;5089919;28;20428;-73
2022/03/24 10:41:33;;;;;;;42.23;20.73;;;15.10;33.50;;;;;;5089543;28;20998;-75
2022/03/24 10:44:19;;;;;;;42.50;20.03;;;15.20;32.80;;;;;;5098804;28;20432;-73
2022/03/24 10:46:45;;;;;;;37.63;19.03;;;15.40;32.00;;;;;;5089634;28;20425;-75
2022/03/24 10:49:18;;;;;;;37.77;19.90;;;15.50;31.70;;;;;;5090530;28;20452;-71
2022/03/24 10:51:46;;;;;;;41.40;20.03;;;16.00;30.80;;;;;;5071987;28;20445;-74
2022/03/24 10:54:18;;;;;;;40.53;19.00;;;16.50;29.40;;;;;;5091821;28;20413;-74
2022/03/24 10:57:10;;;;;;;38.60;18.50;;;16.90;28.60;;;;;;5091530;28;20424;-73
2022/03/24 10:59:40;;;;;;;34.90;19.60;;;17.30;28.50;;;;;;5090164;28;20429;-74
2022/03/24 11:02:08;;;;;;;33.17;18.43;;;17.70;27.60;;;;;;5089064;28;20445;-74
2022/03/24 11:04:34;;;;;;;32.83;17.90;;;18.00;27.40;;;;;;5090228;28;20467;-74
2022/03/24 11:07:00;;;;;;;38.30;18.20;;;18.10;26.50;;;;;;5090648;28;20424;-74
2022/03/24 11:09:28;;;;;;;36.93;21.20;;;18.00;26.30;;;;;;5090485;28;20178;-74
2022/03/24 11:12:27;;;;;;;45.13;20.47;;;18.10;27.80;;;;;;5090537;28;20199;-71
2022/03/24 11:14:55;;;;;;;41.10;22.30;;;18.50;27.70;;;;;;5090390;28;20420;-74
2022/03/24 11:17:23;;;;;;;40.77;20.83;;;18.60;27.80;;;;;;5089439;28;20939;-74
2022/03/24 11:20:14;;;;;;;39.30;20.90;;;18.80;28.20;;;;;;5089497;28;20779;-72
2022/03/24 11:23:00;;;;;;;36.97;20.80;;;18.90;27.20;;;;;;5089546;28;20437;-73
2022/03/24 11:25:27;;;;;;;43.10;20.77;;;18.90;26.90;;;;;;5083421;28;20738;-72
2022/03/24 11:27:55;;;;;;;39.10;19.27;;;19.10;27.10;;;;;;5079573;28;20879;-73
2022/03/24 11:30:22;;;;;;;41.07;19.90;;;19.20;26.80;;;;;;5089552;28;20458;-73
2022/03/24 11:32:50;;;;;;;45.87;21.93;;;19.30;26.90;;;;;;5089792;28;20446;-72
2022/03/24 11:35:17;;;;;;;42.77;21.40;;;19.20;26.80;;;;;;5090134;28;20428;-74
2022/03/24 11:37:43;;;;;;;37.67;19.10;;;18.80;27.80;;;;;;5090944;28;20788;-72
2022/03/24 11:40:12;;;;;;;37.30;17.40;;;18.90;27.80;;;;;;5078482;28;21008;-72
2022/03/24 11:42:52;;;;;;;34.97;17.07;;;19.20;26.80;;;;;;5089630;28;20496;-73
2022/03/24 11:45:54;;;;;;;35.47;17.50;;;19.50;25.10;;;;;;5089786;28;20585;-73
2022/03/24 11:48:44;;;;;;;36.60;18.10;;;19.90;24.40;;;;;;5072095;28;20439;-74
2022/03/24 11:51:20;;;;;;;33.27;16.83;;;20.00;23.90;;;;;;5081157;28;20499;-72
2022/03/24 11:54:03;;;;;;;26.93;15.13;;;19.80;22.70;;;;;;5071547;28;20917;-71
2022/03/24 11:56:29;;;;;;;25.67;15.20;;;19.90;22.80;;;;;;5085187;28;20407;-73
2022/03/24 11:58:55;;;;;;;26.03;14.50;;;20.10;22.20;;;;;;5090085;28;20830;-73
2022/03/24 12:01:21;;;;;;;22.67;13.97;;;20.00;21.30;;;;;;5085508;28;20592;-73
2022/03/24 12:03:56;;;;;;;26.40;16.00;;;20.30;21.30;;;;;;5089668;28;20907;-73
2022/03/24 12:06:41;;;;;;;30.43;16.53;;;20.40;21.80;;;;;;5089323;28;20527;-70
2022/03/24 12:09:09;;;;;;;26.37;15.30;;;20.30;22.10;;;;;;5093919;28;20472;-72
2022/03/24 12:11:37;;;;;;;31.07;16.40;;;20.30;22.30;;;;;;5094799;28;20540;-72
2022/03/24 12:14:36;;;;;;;29.83;16.93;;;20.10;22.70;;;;;;5095334;28;20768;-72
2022/03/24 12:17:14;;;;;;;30.10;15.90;;;19.60;22.90;;;;;;5076743;28;20935;-74
2022/03/24 12:19:46;;;;;;;27.67;15.80;;;19.70;22.90;;;;;;5088798;28;20414;-72
2022/03/24 12:22:35;;;;;;;29.77;17.20;;;19.60;22.90;;;;;;5095071;28;20478;-73
2022/03/24 12:25:01;;;;;;;33.80;17.63;;;19.60;23.30;;;;;;5094515;28;20468;-73
2022/03/24 12:27:33;;;;;;;26.67;15.77;;;19.60;23.30;;;;;;5097139;28;20418;-72
2022/03/24 12:30:18;;;;;;;34.37;16.33;;;19.60;23.30;;;;;;5096547;28;20184;-74
2022/03/24 12:33:07;;;;;;;29.50;16.30;;;19.60;23.90;;;;;;5074050;28;20433;-74
2022/03/24 12:35:53;;;;;;;32.00;17.00;;;19.50;23.80;;;;;;5079773;28;21021;-73
2022/03/24 12:38:25;;;;;;;32.43;16.13;;;19.50;24.10;;;;;;5094960;28;20410;-75